Main page


Airports :

Laupheim, Germany

Laupheim Air Base

latitude: 48-13N, longitude: 009-55E, elevation: 538 m

Current weather observation

The report was made 37 minutes ago, at 06:20 UTC
Wind 4 kt from the North/Northeast
Temperature -4°C
Humidity 80%
Pressure 1023 hPa
Visibility 10 km or more
Few clouds at a height of 2300 ft

METAR: ETHL 210620Z 03004KT 9999 FEW023 M04/M07 Q1023 BLU+BLU+

Time: 07:57 (06:57 UTC)


The report was made 1 hour and 36 minutes ago, at 05:21 UTC
Forecast valid from 21 at 06 UTC to 21 at 15 UTC
Wind 12 kt from the Northeast
Visibility 10 km or more
Scattered clouds at a height of 3500 ft

TAF: ETHL 210521Z 2106/2115 04012KT 9999 NSW SCT035

Weather observations and forecasts of more than 4000 airports (METAR and TAF reports).

The available stations are represented by yellow and red dots on the map.

Hover mouse over dot to see the name of the station.

Then click to see weather observations and forecasts.

To change the map : click on the green buttons with a black cross to zoom in, on the green button with a dash to zoom out, or on the green arrows for adjacent maps.